Latest METARs, TAFs and NOTAMs for MMTP


---------------------------------------------------------------------------
	(OBSERVATIONS)
MMTP 240740Z 00000KT 10SM  SKC 21/20 A2985 RMK HZY=
MMTP 240640Z 00000KT 10SM  SKC 22/20 A2987=
---------------------------------------------------------------------------
	(TERMINAL AREA FORECAST)
MMTP 240516Z 2406/2512 00000KT P6SM SKC
    FM241800 25008KT P6SM SCT025 SCT080
    BECMG 2505/2507 00000KT=
---------------------------------------------------------------------------
	(NOTAMS)


MMTP A7411/18 CHANGED GRADE OF TURBOSINE FUEL FROM JET A-1 TO
    JET A. 29 NOV 23:29 2018 UNTIL PERM. CREATED: 29 NOV 23:39
    2018

---------------------------------------------------------------------------